Time;durP1;ratioP1;P1;durP2;ratioP2;P2;SDS_P1;SDS_P2;PMS_P1;PMS_P2;Temp;Humidity;BMP_temperature;BMP_pressure;BME280_temperature;BME280_humidity;BME280_pressure;Samples;Min_cycle;Max_cycle;Signal;HPM_P1;HPM_P2
2023/06/07 00:00:00;;;;;;;9.77;4.10;;;14.70;99.90;;;;;;5031299;28;20033;-72
2023/06/07 00:02:27;;;;;;;9.93;4.60;;;14.70;99.90;;;;;;5032285;28;20021;-73
2023/06/07 00:04:53;;;;;;;9.30;4.70;;;14.70;99.90;;;;;;5030754;28;20094;-72
2023/06/07 00:07:18;;;;;;;11.57;4.60;;;14.60;99.90;;;;;;5032114;28;20455;-73
2023/06/07 00:09:44;;;;;;;9.75;4.55;;;14.60;99.90;;;;;;5032331;28;20143;-73
2023/06/07 00:12:10;;;;;;;10.48;4.63;;;14.50;99.90;;;;;;5033216;28;20029;-73
2023/06/07 00:14:36;;;;;;;13.70;4.78;;;14.50;99.90;;;;;;5029355;28;20478;-72
2023/06/07 00:17:02;;;;;;;11.80;5.50;;;14.50;99.90;;;;;;5031666;28;20044;-72
2023/06/07 00:19:29;;;;;;;13.40;4.70;;;14.50;99.90;;;;;;5031849;28;20087;-72
2023/06/07 00:21:55;;;;;;;11.00;5.15;;;14.50;99.90;;;;;;5032220;28;20095;-73
2023/06/07 00:24:21;;;;;;;9.52;5.15;;;14.40;99.90;;;;;;5029888;28;20065;-73
2023/06/07 00:26:47;;;;;;;11.25;4.93;;;14.40;99.90;;;;;;5030176;28;20497;-73
2023/06/07 00:29:14;;;;;;;11.73;5.18;;;14.30;99.90;;;;;;5028469;28;20100;-73
2023/06/07 00:31:40;;;;;;;13.80;5.70;;;14.20;99.90;;;;;;5025837;28;20033;-73
2023/06/07 00:34:06;;;;;;;15.20;5.22;;;14.20;99.90;;;;;;5028339;28;20041;-72
2023/06/07 00:36:33;;;;;;;12.45;5.93;;;14.10;99.90;;;;;;5031688;28;20037;-73
2023/06/07 00:38:59;;;;;;;12.00;5.88;;;14.10;99.90;;;;;;5030104;28;20512;-72
2023/06/07 00:41:25;;;;;;;15.30;6.63;;;14.10;99.90;;;;;;5031166;28;20037;-73
2023/06/07 00:43:52;;;;;;;13.77;6.00;;;14.00;99.90;;;;;;5031496;28;20445;-73
2023/06/07 00:46:20;;;;;;;10.82;5.40;;;13.90;99.90;;;;;;5030616;28;20048;-72
2023/06/07 00:48:48;;;;;;;16.02;6.60;;;13.90;99.90;;;;;;5031811;28;20025;-73
2023/06/07 00:51:14;;;;;;;15.32;5.88;;;13.80;99.90;;;;;;5029546;28;20109;-74
2023/06/07 00:53:41;;;;;;;14.30;5.55;;;13.80;99.90;;;;;;5029593;28;20144;-72
2023/06/07 00:56:07;;;;;;;16.50;6.47;;;13.70;99.90;;;;;;5026463;28;20091;-72
2023/06/07 00:58:37;;;;;;;13.75;6.88;;;13.70;99.90;;;;;;5030682;28;20092;-73
2023/06/07 01:01:04;;;;;;;11.60;6.80;;;13.60;99.90;;;;;;5030904;28;20109;-72
2023/06/07 01:03:30;;;;;;;12.10;5.45;;;13.60;99.90;;;;;;5029514;28;20577;-73
2023/06/07 01:05:58;;;;;;;13.43;5.47;;;13.60;99.90;;;;;;5029394;28;20026;-72
2023/06/07 01:08:25;;;;;;;15.88;6.00;;;13.60;99.90;;;;;;5030335;28;20036;-73
2023/06/07 01:10:51;;;;;;;13.50;6.55;;;13.50;99.90;;;;;;5028950;28;20263;-73
2023/06/07 01:13:18;;;;;;;13.35;5.97;;;13.50;99.90;;;;;;5030498;28;20557;-73
2023/06/07 01:15:44;;;;;;;10.65;5.28;;;13.50;99.90;;;;;;5029249;28;20025;-73
2023/06/07 01:18:10;;;;;;;10.45;5.72;;;13.50;99.90;;;;;;5029623;28;20053;-72
2023/06/07 01:20:38;;;;;;;13.52;6.35;;;13.50;99.90;;;;;;5030860;28;20385;-72
2023/06/07 01:23:07;;;;;;;14.13;6.35;;;13.50;99.90;;;;;;5030817;28;20112;-73
2023/06/07 01:25:33;;;;;;;15.23;6.60;;;13.50;99.90;;;;;;5025980;28;20037;-73
2023/06/07 01:28:00;;;;;;;13.23;6.07;;;13.50;99.90;;;;;;5029009;28;20083;-73
2023/06/07 01:30:31;;;;;;;10.70;6.25;;;13.50;99.90;;;;;;5021706;28;20029;-73
2023/06/07 01:32:58;;;;;;;12.82;6.22;;;13.40;99.90;;;;;;5027764;28;20052;-73
2023/06/07 01:35:24;;;;;;;11.32;5.90;;;13.40;99.90;;;;;;5011704;28;20041;-73
2023/06/07 01:37:51;;;;;;;13.23;6.45;;;13.40;99.90;;;;;;5028432;28;20046;-72
2023/06/07 01:40:18;;;;;;;14.43;5.93;;;13.40;99.90;;;;;;5022162;28;20032;-73
2023/06/07 01:42:45;;;;;;;13.40;6.22;;;13.40;99.90;;;;;;5029861;28;20025;-72
2023/06/07 01:45:11;;;;;;;14.55;7.03;;;13.30;99.90;;;;;;5030987;28;20040;-73
2023/06/07 01:47:37;;;;;;;16.23;6.30;;;13.30;99.90;;;;;;5029687;28;20037;-73
2023/06/07 01:50:04;;;;;;;17.90;6.80;;;13.30;99.90;;;;;;5027059;28;20426;-72
2023/06/07 01:52:29;;;;;;;13.80;5.65;;;13.30;99.90;;;;;;5024939;28;20017;-72
2023/06/07 01:54:56;;;;;;;20.40;6.70;;;13.20;99.90;;;;;;5029733;28;20095;-72
2023/06/07 01:57:51;;;;;;;16.38;6.05;;;13.20;99.90;;;;;;5028923;28;20036;-72
2023/06/07 02:00:29;;;;;;;12.93;6.10;;;13.20;99.90;;;;;;5026273;28;20033;-72
2023/06/07 02:03:16;;;;;;;10.35;5.10;;;13.20;99.90;;;;;;5029939;28;20025;-72
2023/06/07 02:05:48;;;;;;;10.40;5.88;;;13.20;99.90;;;;;;5022079;28;20052;-72
2023/06/07 02:08:25;;;;;;;15.07;5.40;;;13.10;99.90;;;;;;5014154;28;20052;-72
2023/06/07 02:10:51;;;;;;;15.00;5.72;;;13.10;99.90;;;;;;5029763;28;20048;-72
2023/06/07 02:13:20;;;;;;;15.23;6.40;;;13.10;99.90;;;;;;5028318;28;20058;-72
2023/06/07 02:15:46;;;;;;;13.90;5.43;;;13.10;99.90;;;;;;5027669;28;20025;-71
2023/06/07 02:18:12;;;;;;;12.27;6.28;;;13.10;99.90;;;;;;5028689;28;20482;-74
2023/06/07 02:20:38;;;;;;;19.33;5.82;;;13.00;99.90;;;;;;5030110;28;20083;-72
2023/06/07 02:23:03;;;;;;;14.25;5.55;;;13.00;99.90;;;;;;5027927;28;20033;-72
2023/06/07 02:25:30;;;;;;;17.35;6.75;;;13.00;99.90;;;;;;5028871;28;20076;-72
2023/06/07 02:27:57;;;;;;;17.38;6.35;;;13.00;99.90;;;;;;5027318;28;20056;-72
2023/06/07 02:30:23;;;;;;;15.88;6.93;;;13.00;99.90;;;;;;5026174;28;20030;-72
2023/06/07 02:32:49;;;;;;;10.38;5.40;;;13.00;99.90;;;;;;5028139;28;20025;-72
2023/06/07 02:35:16;;;;;;;11.93;6.45;;;13.00;99.90;;;;;;5026993;28;20030;-72
2023/06/07 02:37:42;;;;;;;16.67;6.18;;;12.90;99.90;;;;;;5027992;28;20053;-72
2023/06/07 02:40:10;;;;;;;12.35;5.82;;;12.90;99.90;;;;;;5030480;28;20443;-72
2023/06/07 02:42:36;;;;;;;12.60;6.18;;;12.90;99.90;;;;;;5025936;28;20056;-72
2023/06/07 02:45:03;;;;;;;12.43;5.32;;;12.90;99.90;;;;;;5028076;28;20055;-72
2023/06/07 02:47:30;;;;;;;16.00;5.88;;;12.80;99.90;;;;;;5028675;28;20029;-72
2023/06/07 02:49:55;;;;;;;11.25;5.03;;;12.80;99.90;;;;;;5026646;28;20021;-72
2023/06/07 02:52:21;;;;;;;11.52;5.80;;;12.80;99.90;;;;;;5027746;28;20036;-72
2023/06/07 02:54:47;;;;;;;13.75;6.43;;;12.80;99.90;;;;;;5028082;28;20037;-72
2023/06/07 02:57:12;;;;;;;11.75;6.15;;;12.80;99.90;;;;;;5028366;28;20492;-72
2023/06/07 02:59:39;;;;;;;14.40;6.88;;;12.80;99.90;;;;;;5028257;28;20044;-72
2023/06/07 03:02:05;;;;;;;15.13;5.85;;;12.70;99.90;;;;;;5030144;28;20033;-72
2023/06/07 03:04:31;;;;;;;12.48;5.68;;;12.70;99.90;;;;;;5027944;28;20507;-72
2023/06/07 03:06:56;;;;;;;16.45;5.72;;;12.80;99.90;;;;;;5029294;28;20028;-72
2023/06/07 03:09:22;;;;;;;12.38;6.03;;;12.70;99.90;;;;;;5028402;28;20025;-71
2023/06/07 03:11:48;;;;;;;15.13;6.45;;;12.70;99.90;;;;;;5025212;28;20491;-72
2023/06/07 03:14:16;;;;;;;15.18;5.70;;;12.70;99.90;;;;;;5028161;28;20037;-71
2023/06/07 03:16:44;;;;;;;17.73;6.47;;;12.70;99.90;;;;;;5025632;28;20474;-71
2023/06/07 03:19:10;;;;;;;13.25;5.80;;;12.70;99.90;;;;;;5027083;28;20120;-71
2023/06/07 03:21:37;;;;;;;16.17;5.90;;;12.70;99.90;;;;;;5027914;28;20108;-71
2023/06/07 03:24:04;;;;;;;12.55;5.25;;;12.70;99.90;;;;;;5028481;28;20030;-71
2023/06/07 03:26:31;;;;;;;13.13;5.97;;;12.60;99.90;;;;;;5026011;28;20029;-72
2023/06/07 03:28:56;;;;;;;13.23;5.65;;;12.60;99.90;;;;;;5026941;28;20037;-72
2023/06/07 03:31:23;;;;;;;10.25;4.80;;;12.50;99.90;;;;;;5027895;28;20504;-71
2023/06/07 03:33:48;;;;;;;13.00;5.90;;;12.60;99.90;;;;;;5026232;28;20149;-71
2023/06/07 03:36:20;;;;;;;11.88;5.70;;;12.50;99.90;;;;;;5028427;28;20457;-72
2023/06/07 03:38:46;;;;;;;14.60;6.68;;;12.50;99.90;;;;;;5027081;28;20382;-72
2023/06/07 03:41:11;;;;;;;13.68;6.45;;;12.50;99.90;;;;;;5029381;28;20029;-72
2023/06/07 03:43:37;;;;;;;17.90;5.30;;;12.50;99.90;;;;;;5030570;28;20113;-71
2023/06/07 03:46:03;;;;;;;11.52;5.13;;;12.50;99.90;;;;;;5031225;28;20549;-71
2023/06/07 03:48:34;;;;;;;14.68;5.78;;;12.50;99.90;;;;;;5027664;28;20034;-73
2023/06/07 03:51:00;;;;;;;11.40;5.47;;;12.40;99.90;;;;;;5031243;28;20116;-71
2023/06/07 03:53:25;;;;;;;15.30;5.97;;;12.40;99.90;;;;;;5030486;28;20493;-72
2023/06/07 03:55:54;;;;;;;13.35;5.18;;;12.40;99.90;;;;;;5030219;28;20154;-71
2023/06/07 03:58:20;;;;;;;15.25;5.30;;;12.40;99.90;;;;;;5029736;28;20083;-71
2023/06/07 04:00:47;;;;;;;13.95;6.00;;;12.40;99.90;;;;;;5030007;28;20473;-72
2023/06/07 04:03:13;;;;;;;16.88;6.00;;;12.40;99.90;;;;;;5028683;28;20079;-72
2023/06/07 04:05:38;;;;;;;12.48;5.53;;;12.50;99.90;;;;;;5029167;28;20049;-71
2023/06/07 04:08:08;;;;;;;12.80;6.38;;;12.50;99.90;;;;;;5031062;28;20021;-71
2023/06/07 04:10:34;;;;;;;15.20;6.10;;;12.50;99.90;;;;;;5030254;28;20038;-71
2023/06/07 04:12:59;;;;;;;12.95;5.60;;;12.50;99.90;;;;;;5030442;28;20498;-71
2023/06/07 04:15:25;;;;;;;13.80;6.10;;;12.60;99.90;;;;;;5029866;28;20042;-71
2023/06/07 04:17:50;;;;;;;14.60;5.63;;;12.60;99.90;;;;;;5029950;28;20265;-71
2023/06/07 04:20:16;;;;;;;22.30;6.72;;;12.60;99.90;;;;;;5029950;28;20033;-71
2023/06/07 04:22:42;;;;;;;15.65;5.82;;;12.60;99.90;;;;;;5030800;28;20039;-71
2023/06/07 04:25:08;;;;;;;17.77;5.18;;;12.60;99.90;;;;;;5029738;28;20125;-71
2023/06/07 04:27:34;;;;;;;12.60;5.75;;;12.70;99.90;;;;;;5029444;28;20104;-71
2023/06/07 04:30:02;;;;;;;15.20;6.22;;;12.70;99.90;;;;;;5030514;28;20037;-71
2023/06/07 04:32:28;;;;;;;16.40;6.30;;;12.70;99.90;;;;;;5027290;28;20021;-71
2023/06/07 04:34:55;;;;;;;14.23;5.78;;;12.70;99.90;;;;;;5030009;28;20025;-73
2023/06/07 04:37:20;;;;;;;13.95;4.90;;;12.70;99.90;;;;;;5030673;28;20347;-73
2023/06/07 04:39:48;;;;;;;10.23;5.53;;;12.70;99.90;;;;;;5027789;28;20052;-73
2023/06/07 04:42:16;;;;;;;14.80;5.43;;;12.70;99.90;;;;;;5031597;28;20068;-73
2023/06/07 04:44:42;;;;;;;12.40;5.32;;;12.70;99.90;;;;;;5030948;28;20037;-73
2023/06/07 04:47:09;;;;;;;12.68;4.75;;;12.70;99.90;;;;;;5029785;28;20029;-73
2023/06/07 04:49:35;;;;;;;15.02;5.18;;;12.70;99.90;;;;;;5029716;28;20021;-73
2023/06/07 04:52:01;;;;;;;12.93;6.40;;;12.70;99.90;;;;;;5030638;28;20489;-74
2023/06/07 04:54:29;;;;;;;14.68;5.57;;;12.80;99.90;;;;;;5024667;28;20055;-72
2023/06/07 04:56:56;;;;;;;12.63;5.22;;;12.70;99.90;;;;;;5029949;28;20030;-72
2023/06/07 04:59:23;;;;;;;14.70;5.20;;;12.80;99.90;;;;;;5030345;28;20041;-72
2023/06/07 05:01:48;;;;;;;11.63;4.55;;;12.80;99.90;;;;;;5019776;28;20459;-71
2023/06/07 05:04:16;;;;;;;17.10;5.22;;;12.90;99.90;;;;;;5028334;28;20065;-71
2023/06/07 05:06:42;;;;;;;13.25;5.07;;;12.90;99.90;;;;;;5031526;28;20566;-71
2023/06/07 05:09:08;;;;;;;11.15;4.68;;;12.90;99.90;;;;;;5030598;28;20108;-71
2023/06/07 05:11:33;;;;;;;13.20;5.25;;;12.90;99.90;;;;;;5029304;28;20386;-71
2023/06/07 05:13:59;;;;;;;16.65;4.95;;;12.90;99.90;;;;;;5032395;28;20036;-71
2023/06/07 05:16:24;;;;;;;12.27;4.82;;;12.90;99.90;;;;;;5027254;28;20036;-72
2023/06/07 05:18:50;;;;;;;16.52;5.28;;;12.90;99.90;;;;;;5030566;28;20030;-72
2023/06/07 05:21:16;;;;;;;15.60;5.20;;;12.90;99.90;;;;;;5032399;28;20531;-71
2023/06/07 05:23:42;;;;;;;14.68;5.20;;;12.90;99.90;;;;;;5030708;28;20120;-71
2023/06/07 05:26:08;;;;;;;14.35;5.22;;;12.90;99.90;;;;;;5031120;28;20124;-72
2023/06/07 05:28:35;;;;;;;12.15;4.53;;;13.00;99.90;;;;;;5028883;28;21321;-71
2023/06/07 05:31:01;;;;;;;11.07;5.35;;;13.00;99.90;;;;;;5027733;28;20013;-71
2023/06/07 05:33:30;;;;;;;14.73;4.97;;;13.10;99.90;;;;;;5027724;28;20033;-72
2023/06/07 05:35:56;;;;;;;14.75;6.13;;;13.20;99.90;;;;;;5030620;28;20018;-72
2023/06/07 05:38:22;;;;;;;16.67;5.07;;;13.20;99.90;;;;;;5028316;28;20088;-71
2023/06/07 05:40:48;;;;;;;18.00;5.70;;;13.40;99.90;;;;;;5023650;28;20018;-71
2023/06/07 05:43:13;;;;;;;21.70;5.88;;;13.40;99.90;;;;;;5028534;28;20053;-72
2023/06/07 05:45:40;;;;;;;14.73;4.75;;;13.50;99.90;;;;;;5026195;28;20081;-72
2023/06/07 05:48:06;;;;;;;15.77;4.57;;;13.60;99.90;;;;;;5021166;28;20022;-73
2023/06/07 05:50:32;;;;;;;16.50;4.63;;;13.70;99.90;;;;;;5007844;28;20436;-72
2023/06/07 05:52:58;;;;;;;11.35;4.55;;;13.80;99.90;;;;;;5026630;28;20095;-71
2023/06/07 05:55:25;;;;;;;15.45;4.97;;;13.80;99.90;;;;;;5021669;28;20025;-72
2023/06/07 05:57:51;;;;;;;14.88;4.75;;;13.90;99.90;;;;;;5031930;28;20026;-72
2023/06/07 06:00:17;;;;;;;13.27;3.88;;;13.90;99.90;;;;;;5030174;28;20100;-72
2023/06/07 06:02:45;;;;;;;13.48;4.78;;;14.00;99.90;;;;;;5029220;28;20029;-71
2023/06/07 06:05:11;;;;;;;14.55;5.00;;;14.00;99.90;;;;;;5029400;28;20489;-72
2023/06/07 06:07:37;;;;;;;12.05;4.63;;;13.90;99.90;;;;;;5030283;28;20022;-71
2023/06/07 06:10:04;;;;;;;10.32;3.90;;;14.00;99.90;;;;;;5028651;28;20055;-72
2023/06/07 06:12:30;;;;;;;12.90;4.50;;;14.00;99.90;;;;;;5023293;28;20076;-72
2023/06/07 06:14:56;;;;;;;11.55;4.25;;;14.00;99.90;;;;;;5021456;28;20446;-71
2023/06/07 06:17:22;;;;;;;11.15;4.30;;;14.10;99.90;;;;;;5025319;28;20049;-73
2023/06/07 06:19:47;;;;;;;13.50;4.78;;;14.20;99.90;;;;;;5028885;28;20037;-72
2023/06/07 06:22:13;;;;;;;13.20;4.53;;;14.20;99.90;;;;;;5029247;28;20033;-73
2023/06/07 06:24:39;;;;;;;11.93;4.15;;;14.30;99.90;;;;;;5031142;28;20037;-72
2023/06/07 06:27:06;;;;;;;14.45;4.57;;;14.40;99.90;;;;;;5029608;28;20021;-72
2023/06/07 06:29:32;;;;;;;10.52;4.00;;;14.50;99.90;;;;;;5030492;28;20037;-72
2023/06/07 06:31:59;;;;;;;12.45;4.53;;;14.60;99.90;;;;;;5011797;28;20548;-72
2023/06/07 06:34:24;;;;;;;11.55;3.80;;;14.70;99.90;;;;;;5026058;28;20090;-72
2023/06/07 06:36:50;;;;;;;13.48;4.40;;;14.80;99.90;;;;;;5030925;28;20385;-72
2023/06/07 06:39:16;;;;;;;10.93;4.05;;;14.90;99.90;;;;;;5027934;28;20033;-72
2023/06/07 06:41:41;;;;;;;11.52;4.65;;;15.00;99.90;;;;;;5029807;28;20052;-72
2023/06/07 06:44:07;;;;;;;12.18;4.70;;;15.00;99.90;;;;;;5029238;28;20030;-72
2023/06/07 06:46:33;;;;;;;11.88;4.20;;;15.00;99.90;;;;;;5022778;28;20108;-72
2023/06/07 06:48:58;;;;;;;12.23;4.20;;;15.00;99.90;;;;;;5026026;28;20037;-70
2023/06/07 06:51:24;;;;;;;8.82;4.75;;;15.10;99.90;;;;;;5030841;28;20017;-70
2023/06/07 06:53:49;;;;;;;15.82;4.35;;;15.00;99.90;;;;;;5029895;28;20413;-70
2023/06/07 06:56:15;;;;;;;15.75;5.40;;;14.90;99.90;;;;;;5029167;28;20026;-70
2023/06/07 06:58:41;;;;;;;13.80;3.85;;;14.90;99.90;;;;;;5027244;28;20064;-70
2023/06/07 07:01:07;;;;;;;12.30;4.32;;;14.90;99.90;;;;;;5025053;28;20036;-69
2023/06/07 07:03:32;;;;;;;17.17;3.40;;;14.90;99.90;;;;;;5025007;28;20052;-70
2023/06/07 07:05:58;;;;;;;10.15;3.42;;;15.00;99.90;;;;;;5024538;28;20045;-70
2023/06/07 07:08:25;;;;;;;14.70;4.18;;;15.10;99.90;;;;;;5028811;28;20025;-70
2023/06/07 07:10:50;;;;;;;11.52;3.95;;;15.10;99.90;;;;;;5031127;28;20028;-72
2023/06/07 07:13:16;;;;;;;10.70;3.67;;;15.20;99.90;;;;;;5029895;28;20100;-71
2023/06/07 07:15:46;;;;;;;14.77;4.15;;;15.30;99.90;;;;;;5030910;28;20030;-71
2023/06/07 07:18:13;;;;;;;9.35;3.70;;;15.50;99.90;;;;;;5034167;28;20570;-71
2023/06/07 07:20:38;;;;;;;14.15;4.50;;;15.60;99.90;;;;;;5032880;28;20021;-70
2023/06/07 07:23:04;;;;;;;14.43;4.95;;;15.60;99.90;;;;;;5028689;28;20029;-71
2023/06/07 07:25:30;;;;;;;11.50;4.60;;;15.70;99.90;;;;;;5030772;28;20401;-71
2023/06/07 07:27:56;;;;;;;14.57;3.30;;;15.70;99.90;;;;;;5035680;28;20437;-71
2023/06/07 07:30:21;;;;;;;8.70;3.53;;;15.80;99.90;;;;;;5028368;28;20035;-71
2023/06/07 07:32:47;;;;;;;10.48;3.63;;;15.90;99.90;;;;;;5031892;28;20033;-72
2023/06/07 07:35:12;;;;;;;16.67;4.32;;;16.00;99.90;;;;;;5034078;28;20025;-72
2023/06/07 07:37:39;;;;;;;10.02;3.78;;;16.10;99.90;;;;;;5031157;28;20053;-72
2023/06/07 07:40:09;;;;;;;12.55;3.70;;;16.20;99.90;;;;;;5031228;28;20045;-71
2023/06/07 07:42:35;;;;;;;17.92;5.00;;;16.40;99.90;;;;;;5022760;28;20029;-72
2023/06/07 07:45:01;;;;;;;13.77;4.20;;;16.50;99.90;;;;;;5030605;28;20033;-71
2023/06/07 07:47:26;;;;;;;8.40;4.30;;;16.70;99.90;;;;;;5034020;28;20030;-72
2023/06/07 07:49:52;;;;;;;9.20;4.35;;;16.80;99.90;;;;;;5031398;28;20136;-71
2023/06/07 07:52:17;;;;;;;10.73;4.70;;;16.70;99.90;;;;;;5031525;28;20032;-71
2023/06/07 07:54:43;;;;;;;11.35;3.78;;;16.70;99.90;;;;;;5024424;28;20042;-72
2023/06/07 07:57:10;;;;;;;13.90;4.03;;;16.70;99.90;;;;;;5031500;28;20060;-72
2023/06/07 07:59:36;;;;;;;10.93;4.35;;;16.70;99.90;;;;;;5027053;28;20405;-72
2023/06/07 08:02:01;;;;;;;10.85;4.20;;;16.70;99.90;;;;;;5031596;28;20036;-71
2023/06/07 08:04:27;;;;;;;17.63;4.68;;;16.80;99.90;;;;;;5031122;28;20489;-71
2023/06/07 08:06:52;;;;;;;12.27;4.80;;;16.80;99.90;;;;;;5031171;28;20093;-71
2023/06/07 08:09:18;;;;;;;11.90;4.40;;;16.90;99.90;;;;;;5033621;28;20029;-72
2023/06/07 08:11:43;;;;;;;13.82;4.70;;;17.00;99.90;;;;;;5035484;28;20047;-71
2023/06/07 08:14:09;;;;;;;21.83;5.15;;;17.10;99.90;;;;;;5033925;28;20092;-71
2023/06/07 08:16:35;;;;;;;11.38;4.35;;;17.30;99.90;;;;;;5031124;28;20037;-72
2023/06/07 08:19:00;;;;;;;12.80;3.10;;;17.30;99.90;;;;;;5034279;28;20037;-71
2023/06/07 08:21:26;;;;;;;10.20;4.10;;;17.30;99.90;;;;;;5033510;28;20029;-71
2023/06/07 08:23:55;;;;;;;11.25;3.95;;;17.40;99.90;;;;;;5034274;28;20504;-71
2023/06/07 08:26:21;;;;;;;18.60;5.95;;;17.50;99.90;;;;;;5031749;28;20036;-72
2023/06/07 08:28:46;;;;;;;14.93;3.67;;;17.50;99.90;;;;;;5035098;28;20021;-71
2023/06/07 08:31:12;;;;;;;10.82;3.45;;;17.50;99.90;;;;;;5028777;28;20540;-72
2023/06/07 08:33:37;;;;;;;11.90;4.05;;;17.40;99.90;;;;;;5025879;28;20378;-72
2023/06/07 08:36:03;;;;;;;10.57;4.10;;;17.50;99.90;;;;;;5019289;28;20543;-71
2023/06/07 08:38:29;;;;;;;15.25;4.43;;;17.40;99.90;;;;;;5025712;28;20409;-72
2023/06/07 08:40:56;;;;;;;15.63;4.40;;;17.50;99.90;;;;;;5024665;28;20037;-71
2023/06/07 08:43:22;;;;;;;11.38;4.40;;;17.60;99.90;;;;;;5024927;28;20044;-71
2023/06/07 08:45:50;;;;;;;11.52;4.57;;;17.80;99.90;;;;;;5029556;28;20045;-72
2023/06/07 08:48:16;;;;;;;14.52;4.85;;;17.90;99.90;;;;;;5037062;28;20022;-72
2023/06/07 08:50:44;;;;;;;9.68;4.05;;;18.10;99.90;;;;;;5037877;28;20037;-71
2023/06/07 08:53:17;;;;;;;13.98;4.75;;;18.30;99.90;;;;;;5027079;28;20021;-72
2023/06/07 08:55:43;;;;;;;13.35;5.47;;;18.50;99.90;;;;;;5029096;28;20120;-71
2023/06/07 08:58:10;;;;;;;14.70;4.97;;;18.70;99.90;;;;;;5026064;28;20416;-71
2023/06/07 09:00:36;;;;;;;12.90;4.03;;;19.00;99.90;;;;;;5023886;28;20052;-71
2023/06/07 09:03:02;;;;;;;11.18;3.92;;;19.20;99.90;;;;;;5027366;28;20033;-71
2023/06/07 09:05:28;;;;;;;14.55;4.95;;;19.30;99.90;;;;;;5033171;28;20485;-71
2023/06/07 09:07:53;;;;;;;10.60;4.07;;;19.40;99.90;;;;;;5036111;28;20051;-72
2023/06/07 09:10:19;;;;;;;11.57;4.28;;;19.50;99.90;;;;;;5022612;28;20076;-71
2023/06/07 09:12:45;;;;;;;9.82;4.13;;;19.60;99.90;;;;;;5020811;28;20052;-71
2023/06/07 09:15:18;;;;;;;16.08;4.55;;;19.70;99.90;;;;;;5030125;28;20071;-72
2023/06/07 09:17:54;;;;;;;16.95;4.72;;;19.80;99.90;;;;;;5030182;28;20079;-72
2023/06/07 09:20:27;;;;;;;13.43;4.30;;;19.90;99.90;;;;;;5024738;28;20562;-73
2023/06/07 09:23:19;;;;;;;8.45;4.20;;;19.90;99.90;;;;;;5027528;28;20100;-72
2023/06/07 09:25:52;;;;;;;8.65;3.47;;;19.70;98.90;;;;;;5019880;28;20033;-72
2023/06/07 09:28:18;;;;;;;8.50;3.45;;;19.50;99.20;;;;;;5030155;28;20057;-72
2023/06/07 09:30:55;;;;;;;9.40;4.22;;;19.40;99.40;;;;;;5029426;28;20477;-73
2023/06/07 09:33:33;;;;;;;11.48;4.85;;;19.30;99.20;;;;;;5028502;28;20367;-73
2023/06/07 09:36:13;;;;;;;11.85;4.97;;;19.30;99.40;;;;;;5028033;28;20038;-73
2023/06/07 09:38:39;;;;;;;13.15;3.95;;;19.40;99.00;;;;;;5024871;28;20049;-73
2023/06/07 09:41:06;;;;;;;15.65;5.10;;;19.40;99.20;;;;;;5034722;28;20033;-73
2023/06/07 09:43:54;;;;;;;11.80;5.32;;;19.60;99.10;;;;;;5026449;28;20017;-71
2023/06/07 09:46:20;;;;;;;10.45;4.10;;;19.60;99.10;;;;;;5004090;28;20036;-72
2023/06/07 09:48:53;;;;;;;9.73;4.68;;;19.70;99.00;;;;;;5027458;28;20053;-71
2023/06/07 09:51:20;;;;;;;16.15;5.13;;;19.80;98.90;;;;;;5030564;28;20116;-72
2023/06/07 09:54:05;;;;;;;12.50;4.55;;;19.90;98.80;;;;;;5027521;28;20512;-72
2023/06/07 09:56:31;;;;;;;8.55;4.05;;;20.20;98.90;;;;;;5022427;28;20025;-72
2023/06/07 09:59:13;;;;;;;10.93;4.50;;;20.40;98.00;;;;;;5027661;28;20033;-72
2023/06/07 10:01:45;;;;;;;13.00;4.68;;;20.50;97.50;;;;;;5007657;28;20040;-72
2023/06/07 10:04:12;;;;;;;13.63;5.18;;;20.60;97.30;;;;;;5023577;28;20120;-71
2023/06/07 10:06:40;;;;;;;8.93;3.35;;;20.70;96.50;;;;;;5023065;28;20392;-71
2023/06/07 10:09:07;;;;;;;10.25;4.00;;;20.80;96.40;;;;;;5021985;28;20104;-72
2023/06/07 10:11:34;;;;;;;14.73;4.22;;;20.70;96.20;;;;;;5022519;28;20025;-72
2023/06/07 10:14:07;;;;;;;15.25;4.57;;;20.90;96.40;;;;;;5029976;28;20373;-72
2023/06/07 10:16:37;;;;;;;14.48;4.85;;;21.00;96.10;;;;;;5030982;28;20049;-72
2023/06/07 10:19:18;;;;;;;13.52;4.18;;;21.10;95.90;;;;;;5026035;28;20037;-72
2023/06/07 10:21:47;;;;;;;12.27;4.53;;;21.20;96.00;;;;;;5026627;28;20033;-72
2023/06/07 10:24:19;;;;;;;12.93;4.00;;;21.40;95.80;;;;;;5030822;28;20049;-72
2023/06/07 10:26:57;;;;;;;10.88;4.15;;;21.50;95.70;;;;;;5026347;28;20037;-72
2023/06/07 10:29:38;;;;;;;10.73;4.20;;;21.60;95.40;;;;;;5004544;28;20025;-71
2023/06/07 10:32:12;;;;;;;11.73;4.30;;;21.60;94.90;;;;;;5023458;28;20033;-71
2023/06/07 10:34:38;;;;;;;12.60;3.80;;;21.70;94.50;;;;;;5026809;28;20029;-71
2023/06/07 10:37:07;;;;;;;9.25;3.97;;;21.60;94.40;;;;;;5030026;28;20041;-72
2023/06/07 10:39:34;;;;;;;13.60;4.32;;;21.60;94.30;;;;;;5017266;28;20490;-72
2023/06/07 10:42:00;;;;;;;14.07;4.55;;;21.60;93.90;;;;;;5027608;28;20033;-72
2023/06/07 10:44:25;;;;;;;10.35;4.63;;;21.50;93.70;;;;;;5028001;28;20094;-72
2023/06/07 10:47:24;;;;;;;11.88;4.65;;;21.50;93.70;;;;;;5024859;28;20064;-72
2023/06/07 10:49:56;;;;;;;12.65;3.33;;;21.50;93.60;;;;;;5027555;28;20025;-72
2023/06/07 10:52:23;;;;;;;11.75;4.03;;;21.50;93.70;;;;;;5027802;28;20029;-72
2023/06/07 10:54:49;;;;;;;11.70;3.95;;;21.40;93.80;;;;;;5028613;28;20051;-72
2023/06/07 10:57:31;;;;;;;8.52;3.92;;;21.50;93.90;;;;;;5027155;28;20037;-72
2023/06/07 11:00:29;;;;;;;11.98;3.53;;;21.50;93.40;;;;;;5029439;28;20116;-72
2023/06/07 11:03:09;;;;;;;13.40;2.97;;;21.50;93.20;;;;;;5028807;28;20022;-72
2023/06/07 11:05:58;;;;;;;10.60;3.55;;;21.60;93.00;;;;;;5029106;28;20037;-72
2023/06/07 11:08:31;;;;;;;10.73;3.60;;;21.70;92.50;;;;;;5029200;28;20022;-73
2023/06/07 11:11:00;;;;;;;9.38;3.55;;;21.80;92.30;;;;;;5030577;28;20029;-71
2023/06/07 11:13:26;;;;;;;11.30;3.80;;;22.00;92.50;;;;;;5008633;28;20036;-72
2023/06/07 11:15:52;;;;;;;8.10;3.28;;;22.10;91.90;;;;;;5027472;28;20108;-72
2023/06/07 11:18:17;;;;;;;10.95;2.72;;;22.20;91.70;;;;;;5021559;28;20021;-72
2023/06/07 11:20:48;;;;;;;7.47;3.38;;;22.30;91.80;;;;;;5029482;28;20029;-72
2023/06/07 11:23:19;;;;;;;8.13;2.50;;;22.50;91.30;;;;;;5012743;28;20366;-72
2023/06/07 11:25:45;;;;;;;10.75;3.40;;;22.60;90.90;;;;;;5029886;28;20502;-71
2023/06/07 11:28:12;;;;;;;9.90;2.60;;;22.80;90.80;;;;;;5028540;28;20041;-71
2023/06/07 11:30:38;;;;;;;10.43;3.42;;;23.00;90.30;;;;;;5025412;28;20051;-71
2023/06/07 11:33:04;;;;;;;9.13;3.72;;;23.10;88.90;;;;;;5027695;28;20034;-72
2023/06/07 11:35:32;;;;;;;9.85;3.53;;;23.10;88.50;;;;;;5030076;28;20029;-72
2023/06/07 11:38:03;;;;;;;8.18;3.13;;;23.00;88.00;;;;;;5028289;28;20371;-72
2023/06/07 11:40:28;;;;;;;7.18;2.97;;;23.00;88.80;;;;;;5030286;28;20048;-72
2023/06/07 11:42:54;;;;;;;5.95;2.60;;;23.10;88.70;;;;;;5030618;28;20486;-71
2023/06/07 11:45:21;;;;;;;7.90;3.78;;;23.20;87.50;;;;;;5028483;28;20034;-71
2023/06/07 11:47:50;;;;;;;6.47;3.25;;;23.30;86.90;;;;;;5027140;28;20078;-72
2023/06/07 11:50:16;;;;;;;10.77;3.65;;;23.20;86.10;;;;;;5029921;28;20036;-71
2023/06/07 11:52:42;;;;;;;6.93;2.70;;;23.20;86.20;;;;;;5030674;28;20371;-72
2023/06/07 11:55:08;;;;;;;10.20;3.45;;;23.30;85.30;;;;;;5030387;28;20032;-72
2023/06/07 11:57:38;;;;;;;8.15;3.15;;;23.20;83.90;;;;;;5028162;28;20021;-72
2023/06/07 12:00:17;;;;;;;6.80;2.85;;;23.30;83.20;;;;;;5029138;28;20021;-72
2023/06/07 12:02:43;;;;;;;8.07;3.05;;;23.30;83.60;;;;;;5031556;28;20133;-72
2023/06/07 12:05:11;;;;;;;7.05;2.78;;;23.30;82.30;;;;;;5032776;28;20370;-72
2023/06/07 12:07:40;;;;;;;7.00;2.65;;;23.40;83.70;;;;;;5034136;28;20017;-71
2023/06/07 12:10:09;;;;;;;9.10;4.13;;;23.50;82.90;;;;;;5033068;28;20108;-71
2023/06/07 12:12:35;;;;;;;9.27;4.00;;;23.60;82.90;;;;;;5032621;28;20492;-71
2023/06/07 12:15:05;;;;;;;7.55;3.40;;;23.70;82.10;;;;;;5015429;28;20401;-71
2023/06/07 12:17:35;;;;;;;7.88;3.00;;;23.90;81.30;;;;;;5033530;28;20040;-71
2023/06/07 12:20:08;;;;;;;10.18;3.00;;;24.00;81.90;;;;;;5033210;28;20052;-71
2023/06/07 12:22:34;;;;;;;8.15;3.42;;;24.10;81.10;;;;;;5032124;28;20048;-71
2023/06/07 12:25:12;;;;;;;10.82;4.03;;;24.20;81.10;;;;;;5033182;28;20041;-71
2023/06/07 12:27:37;;;;;;;11.10;4.30;;;24.50;80.70;;;;;;5033548;28;20554;-71
2023/06/07 12:30:07;;;;;;;10.13;4.43;;;24.60;79.50;;;;;;5032970;28;20029;-71
2023/06/07 12:32:32;;;;;;;12.10;4.40;;;24.70;78.90;;;;;;5028016;28;20027;-71
2023/06/07 12:35:00;;;;;;;10.30;3.70;;;24.90;79.10;;;;;;5032391;28;20083;-71
2023/06/07 12:37:26;;;;;;;9.77;4.13;;;25.10;78.50;;;;;;5030833;28;20470;-71
2023/06/07 12:39:51;;;;;;;10.60;3.70;;;25.40;77.60;;;;;;5033622;28;20146;-71